sensor_id;sensor_type;location;lat;lon;timestamp;temperature;humidity
2913;DHT22;1466;48.778;9.166;2023-10-13T00:01:57;20.90;90.00
2913;DHT22;1466;48.778;9.166;2023-10-13T00:04:27;20.80;89.80
2913;DHT22;1466;48.778;9.166;2023-10-13T00:06:55;20.80;89.90
2913;DHT22;1466;48.778;9.166;2023-10-13T00:09:24;20.80;89.70
2913;DHT22;1466;48.778;9.166;2023-10-13T00:11:51;20.80;89.10
2913;DHT22;1466;48.778;9.166;2023-10-13T00:14:18;20.80;89.10
2913;DHT22;1466;48.778;9.166;2023-10-13T00:16:44;20.90;89.00
2913;DHT22;1466;48.778;9.166;2023-10-13T00:19:32;20.80;88.40
2913;DHT22;1466;48.778;9.166;2023-10-13T00:22:11;20.80;88.40
2913;DHT22;1466;48.778;9.166;2023-10-13T00:24:40;20.80;88.30
2913;DHT22;1466;48.778;9.166;2023-10-13T00:32:48;20.70;87.00
2913;DHT22;1466;48.778;9.166;2023-10-13T00:35:20;20.70;87.30
2913;DHT22;1466;48.778;9.166;2023-10-13T00:37:58;20.70;87.00
2913;DHT22;1466;48.778;9.166;2023-10-13T00:40:30;20.70;86.30
2913;DHT22;1466;48.778;9.166;2023-10-13T00:42:57;20.70;85.80
2913;DHT22;1466;48.778;9.166;2023-10-13T00:48:14;20.50;85.70
2913;DHT22;1466;48.778;9.166;2023-10-13T00:50:42;20.40;85.70
2913;DHT22;1466;48.778;9.166;2023-10-13T00:53:11;20.40;85.30
2913;DHT22;1466;48.778;9.166;2023-10-13T00:55:37;20.40;85.00
2913;DHT22;1466;48.778;9.166;2023-10-13T00:58:07;20.40;84.60
2913;DHT22;1466;48.778;9.166;2023-10-13T01:00:37;20.40;84.30
2913;DHT22;1466;48.778;9.166;2023-10-13T01:03:12;20.40;84.50
2913;DHT22;1466;48.778;9.166;2023-10-13T01:05:39;20.40;84.50
2913;DHT22;1466;48.778;9.166;2023-10-13T01:08:06;20.40;84.20
2913;DHT22;1466;48.778;9.166;2023-10-13T01:10:37;20.40;83.70
2913;DHT22;1466;48.778;9.166;2023-10-13T01:13:06;20.40;83.60
2913;DHT22;1466;48.778;9.166;2023-10-13T01:15:32;20.30;83.50
2913;DHT22;1466;48.778;9.166;2023-10-13T01:18:11;20.30;83.50
2913;DHT22;1466;48.778;9.166;2023-10-13T01:20:38;20.30;83.40
2913;DHT22;1466;48.778;9.166;2023-10-13T01:23:18;20.30;83.20
2913;DHT22;1466;48.778;9.166;2023-10-13T01:25:44;20.30;83.20
2913;DHT22;1466;48.778;9.166;2023-10-13T01:28:11;20.30;83.50
2913;DHT22;1466;48.778;9.166;2023-10-13T01:30:41;20.20;83.50
2913;DHT22;1466;48.778;9.166;2023-10-13T01:33:07;20.30;83.30
2913;DHT22;1466;48.778;9.166;2023-10-13T01:35:34;20.30;82.90
2913;DHT22;1466;48.778;9.166;2023-10-13T01:38:13;20.30;82.90
2913;DHT22;1466;48.778;9.166;2023-10-13T01:40:39;20.20;83.00
2913;DHT22;1466;48.778;9.166;2023-10-13T01:43:04;20.20;83.30
2913;DHT22;1466;48.778;9.166;2023-10-13T01:45:32;20.10;83.10
2913;DHT22;1466;48.778;9.166;2023-10-13T01:47:57;20.10;82.90
2913;DHT22;1466;48.778;9.166;2023-10-13T01:50:23;20.00;82.70
2913;DHT22;1466;48.778;9.166;2023-10-13T01:52:55;20.00;82.70
2913;DHT22;1466;48.778;9.166;2023-10-13T01:55:37;20.00;82.90
2913;DHT22;1466;48.778;9.166;2023-10-13T01:58:05;20.00;82.70
2913;DHT22;1466;48.778;9.166;2023-10-13T02:00:39;20.00;82.70
2913;DHT22;1466;48.778;9.166;2023-10-13T02:03:10;20.00;82.60
2913;DHT22;1466;48.778;9.166;2023-10-13T02:05:46;20.00;82.70
2913;DHT22;1466;48.778;9.166;2023-10-13T02:08:15;19.90;82.30
2913;DHT22;1466;48.778;9.166;2023-10-13T02:10:49;19.90;82.60
2913;DHT22;1466;48.778;9.166;2023-10-13T02:13:16;19.90;82.60
2913;DHT22;1466;48.778;9.166;2023-10-13T02:15:44;19.90;82.50
2913;DHT22;1466;48.778;9.166;2023-10-13T02:18:15;20.00;82.30
2913;DHT22;1466;48.778;9.166;2023-10-13T02:20:56;20.00;82.00
2913;DHT22;1466;48.778;9.166;2023-10-13T02:23:23;20.00;81.90
2913;DHT22;1466;48.778;9.166;2023-10-13T02:25:50;20.00;81.80
2913;DHT22;1466;48.778;9.166;2023-10-13T02:28:26;20.00;81.70
2913;DHT22;1466;48.778;9.166;2023-10-13T02:30:54;20.00;81.50
2913;DHT22;1466;48.778;9.166;2023-10-13T02:33:20;20.00;81.60
2913;DHT22;1466;48.778;9.166;2023-10-13T02:35:47;20.00;81.60
2913;DHT22;1466;48.778;9.166;2023-10-13T02:38:20;20.00;82.50
2913;DHT22;1466;48.778;9.166;2023-10-13T02:41:20;20.00;81.80
2913;DHT22;1466;48.778;9.166;2023-10-13T02:43:53;19.90;81.80
2913;DHT22;1466;48.778;9.166;2023-10-13T02:46:20;19.90;81.90
2913;DHT22;1466;48.778;9.166;2023-10-13T02:48:49;19.90;82.00
2913;DHT22;1466;48.778;9.166;2023-10-13T02:51:23;19.80;82.30
2913;DHT22;1466;48.778;9.166;2023-10-13T02:54:01;19.80;82.40
2913;DHT22;1466;48.778;9.166;2023-10-13T02:56:36;19.70;82.50
2913;DHT22;1466;48.778;9.166;2023-10-13T02:59:02;19.70;82.80
2913;DHT22;1466;48.778;9.166;2023-10-13T03:01:35;19.70;83.80
2913;DHT22;1466;48.778;9.166;2023-10-13T03:04:02;19.60;83.20
2913;DHT22;1466;48.778;9.166;2023-10-13T03:06:29;19.60;83.20
2913;DHT22;1466;48.778;9.166;2023-10-13T03:09:17;19.60;83.20
2913;DHT22;1466;48.778;9.166;2023-10-13T03:11:48;19.60;83.40
2913;DHT22;1466;48.778;9.166;2023-10-13T03:14:21;19.60;83.40
2913;DHT22;1466;48.778;9.166;2023-10-13T03:16:58;19.60;83.40
2913;DHT22;1466;48.778;9.166;2023-10-13T03:19:28;19.60;83.10
2913;DHT22;1466;48.778;9.166;2023-10-13T03:21:59;19.60;82.70
2913;DHT22;1466;48.778;9.166;2023-10-13T03:24:32;19.60;82.40
2913;DHT22;1466;48.778;9.166;2023-10-13T03:27:03;19.60;82.20
2913;DHT22;1466;48.778;9.166;2023-10-13T03:29:35;19.60;82.00
2913;DHT22;1466;48.778;9.166;2023-10-13T03:32:01;19.70;81.90
2913;DHT22;1466;48.778;9.166;2023-10-13T03:34:39;19.70;81.60
2913;DHT22;1466;48.778;9.166;2023-10-13T03:37:18;19.70;81.60
2913;DHT22;1466;48.778;9.166;2023-10-13T03:39:45;19.70;81.50
2913;DHT22;1466;48.778;9.166;2023-10-13T03:42:11;19.70;81.30
2913;DHT22;1466;48.778;9.166;2023-10-13T03:44:47;19.60;81.40
2913;DHT22;1466;48.778;9.166;2023-10-13T03:47:13;19.60;82.30
2913;DHT22;1466;48.778;9.166;2023-10-13T03:49:52;19.60;81.60
2913;DHT22;1466;48.778;9.166;2023-10-13T03:52:38;19.60;81.50
2913;DHT22;1466;48.778;9.166;2023-10-13T03:55:04;19.70;81.50
2913;DHT22;1466;48.778;9.166;2023-10-13T03:57:31;19.60;81.20
2913;DHT22;1466;48.778;9.166;2023-10-13T04:00:02;19.60;81.10
2913;DHT22;1466;48.778;9.166;2023-10-13T04:02:34;19.60;81.00
2913;DHT22;1466;48.778;9.166;2023-10-13T04:05:02;19.60;81.00
2913;DHT22;1466;48.778;9.166;2023-10-13T04:07:33;19.60;81.00
2913;DHT22;1466;48.778;9.166;2023-10-13T04:10:07;19.50;81.00
2913;DHT22;1466;48.778;9.166;2023-10-13T04:12:56;19.50;81.10
2913;DHT22;1466;48.778;9.166;2023-10-13T04:15:43;19.60;81.10
2913;DHT22;1466;48.778;9.166;2023-10-13T04:18:28;19.50;81.10
2913;DHT22;1466;48.778;9.166;2023-10-13T04:21:12;19.50;81.10
2913;DHT22;1466;48.778;9.166;2023-10-13T04:23:56;19.50;81.10
2913;DHT22;1466;48.778;9.166;2023-10-13T04:26:51;19.50;81.20
2913;DHT22;1466;48.778;9.166;2023-10-13T04:29:36;19.50;81.20
2913;DHT22;1466;48.778;9.166;2023-10-13T04:32:12;19.50;81.20
2913;DHT22;1466;48.778;9.166;2023-10-13T04:34:41;19.50;81.20
2913;DHT22;1466;48.778;9.166;2023-10-13T04:37:21;19.40;81.20
2913;DHT22;1466;48.778;9.166;2023-10-13T04:39:58;19.50;81.40
2913;DHT22;1466;48.778;9.166;2023-10-13T04:42:37;19.50;81.50
2913;DHT22;1466;48.778;9.166;2023-10-13T04:45:17;19.50;81.80
2913;DHT22;1466;48.778;9.166;2023-10-13T04:47:55;19.50;81.80
2913;DHT22;1466;48.778;9.166;2023-10-13T04:50:40;19.50;81.70
2913;DHT22;1466;48.778;9.166;2023-10-13T04:53:14;19.50;81.90
2913;DHT22;1466;48.778;9.166;2023-10-13T04:56:00;19.40;82.00
2913;DHT22;1466;48.778;9.166;2023-10-13T04:58:32;19.30;82.20
2913;DHT22;1466;48.778;9.166;2023-10-13T05:01:04;19.20;82.80
2913;DHT22;1466;48.778;9.166;2023-10-13T05:03:48;19.10;83.50
2913;DHT22;1466;48.778;9.166;2023-10-13T05:06:32;19.10;83.80
2913;DHT22;1466;48.778;9.166;2023-10-13T05:09:21;19.00;84.10
2913;DHT22;1466;48.778;9.166;2023-10-13T05:12:05;19.00;84.60
2913;DHT22;1466;48.778;9.166;2023-10-13T05:14:49;18.90;84.70
2913;DHT22;1466;48.778;9.166;2023-10-13T05:17:33;19.00;85.10
2913;DHT22;1466;48.778;9.166;2023-10-13T05:20:26;19.00;85.20
2913;DHT22;1466;48.778;9.166;2023-10-13T05:23:10;19.00;85.30
2913;DHT22;1466;48.778;9.166;2023-10-13T05:25:54;19.00;85.40
2913;DHT22;1466;48.778;9.166;2023-10-13T05:28:38;19.00;85.40
2913;DHT22;1466;48.778;9.166;2023-10-13T05:31:22;18.90;85.30
2913;DHT22;1466;48.778;9.166;2023-10-13T05:34:06;18.90;85.30
2913;DHT22;1466;48.778;9.166;2023-10-13T05:36:50;18.90;85.30
2913;DHT22;1466;48.778;9.166;2023-10-13T05:39:34;18.90;85.10
2913;DHT22;1466;48.778;9.166;2023-10-13T05:42:19;18.90;84.90
2913;DHT22;1466;48.778;9.166;2023-10-13T05:45:03;19.00;84.70
2913;DHT22;1466;48.778;9.166;2023-10-13T05:47:44;19.00;84.40
2913;DHT22;1466;48.778;9.166;2023-10-13T05:50:10;19.00;84.20
2913;DHT22;1466;48.778;9.166;2023-10-13T05:52:59;19.10;84.20
2913;DHT22;1466;48.778;9.166;2023-10-13T05:55:28;19.10;83.90
2913;DHT22;1466;48.778;9.166;2023-10-13T05:58:13;19.20;83.70
2913;DHT22;1466;48.778;9.166;2023-10-13T06:00:57;19.30;83.60
2913;DHT22;1466;48.778;9.166;2023-10-13T06:03:42;19.30;84.00
2913;DHT22;1466;48.778;9.166;2023-10-13T06:06:26;19.40;83.00
2913;DHT22;1466;48.778;9.166;2023-10-13T06:09:10;19.50;82.80
2913;DHT22;1466;48.778;9.166;2023-10-13T06:11:54;19.40;82.70
2913;DHT22;1466;48.778;9.166;2023-10-13T06:14:38;19.50;82.60
2913;DHT22;1466;48.778;9.166;2023-10-13T06:17:23;19.50;82.30
2913;DHT22;1466;48.778;9.166;2023-10-13T06:20:07;19.60;82.60
2913;DHT22;1466;48.778;9.166;2023-10-13T06:22:51;19.70;82.50
2913;DHT22;1466;48.778;9.166;2023-10-13T06:25:35;19.70;82.30
2913;DHT22;1466;48.778;9.166;2023-10-13T06:28:19;19.80;81.90
2913;DHT22;1466;48.778;9.166;2023-10-13T06:31:05;19.80;81.60
2913;DHT22;1466;48.778;9.166;2023-10-13T06:33:34;19.90;81.70
2913;DHT22;1466;48.778;9.166;2023-10-13T06:36:04;19.90;81.70
2913;DHT22;1466;48.778;9.166;2023-10-13T06:38:35;20.00;81.50
2913;DHT22;1466;48.778;9.166;2023-10-13T06:41:04;20.10;81.40
2913;DHT22;1466;48.778;9.166;2023-10-13T06:43:36;20.10;81.30
2913;DHT22;1466;48.778;9.166;2023-10-13T06:46:09;20.10;81.10
2913;DHT22;1466;48.778;9.166;2023-10-13T06:48:40;20.10;80.80
2913;DHT22;1466;48.778;9.166;2023-10-13T06:51:06;20.10;80.80
2913;DHT22;1466;48.778;9.166;2023-10-13T06:53:52;20.10;80.60
2913;DHT22;1466;48.778;9.166;2023-10-13T06:56:22;20.10;80.50
2913;DHT22;1466;48.778;9.166;2023-10-13T06:58:50;20.10;80.70
2913;DHT22;1466;48.778;9.166;2023-10-13T07:01:16;20.10;80.40
2913;DHT22;1466;48.778;9.166;2023-10-13T07:03:48;20.10;80.40
2913;DHT22;1466;48.778;9.166;2023-10-13T07:06:19;20.10;80.40
2913;DHT22;1466;48.778;9.166;2023-10-13T07:08:48;20.10;80.50
2913;DHT22;1466;48.778;9.166;2023-10-13T07:11:27;20.20;80.60
2913;DHT22;1466;48.778;9.166;2023-10-13T07:14:03;20.20;80.50
2913;DHT22;1466;48.778;9.166;2023-10-13T07:16:43;20.20;80.50
2913;DHT22;1466;48.778;9.166;2023-10-13T07:19:13;20.20;80.30
2913;DHT22;1466;48.778;9.166;2023-10-13T07:21:44;20.30;80.30
2913;DHT22;1466;48.778;9.166;2023-10-13T07:24:12;20.40;80.10
2913;DHT22;1466;48.778;9.166;2023-10-13T07:26:37;20.40;79.60
2913;DHT22;1466;48.778;9.166;2023-10-13T07:29:11;20.50;79.20
2913;DHT22;1466;48.778;9.166;2023-10-13T07:31:37;20.60;78.80
2913;DHT22;1466;48.778;9.166;2023-10-13T07:34:05;20.70;78.40
2913;DHT22;1466;48.778;9.166;2023-10-13T07:36:39;20.80;78.00
2913;DHT22;1466;48.778;9.166;2023-10-13T07:39:05;20.90;77.90
2913;DHT22;1466;48.778;9.166;2023-10-13T07:41:56;21.00;77.60
2913;DHT22;1466;48.778;9.166;2023-10-13T07:44:35;21.00;77.30
2913;DHT22;1466;48.778;9.166;2023-10-13T07:47:02;21.10;77.10
2913;DHT22;1466;48.778;9.166;2023-10-13T07:49:31;21.20;76.80
2913;DHT22;1466;48.778;9.166;2023-10-13T07:51:59;21.30;76.60
2913;DHT22;1466;48.778;9.166;2023-10-13T07:54:26;21.30;76.30
2913;DHT22;1466;48.778;9.166;2023-10-13T07:56:52;21.40;76.00
2913;DHT22;1466;48.778;9.166;2023-10-13T07:59:20;21.40;75.70
2913;DHT22;1466;48.778;9.166;2023-10-13T08:01:48;21.50;75.20
2913;DHT22;1466;48.778;9.166;2023-10-13T08:04:32;21.50;74.90
2913;DHT22;1466;48.778;9.166;2023-10-13T08:07:01;21.60;74.70
2913;DHT22;1466;48.778;9.166;2023-10-13T08:09:37;21.70;74.40
2913;DHT22;1466;48.778;9.166;2023-10-13T08:12:07;21.80;73.80
2913;DHT22;1466;48.778;9.166;2023-10-13T08:14:36;21.90;73.00
2913;DHT22;1466;48.778;9.166;2023-10-13T08:17:05;22.00;72.70
2913;DHT22;1466;48.778;9.166;2023-10-13T08:19:37;22.00;72.20
2913;DHT22;1466;48.778;9.166;2023-10-13T08:22:08;22.10;71.60
2913;DHT22;1466;48.778;9.166;2023-10-13T08:24:54;22.30;71.10
2913;DHT22;1466;48.778;9.166;2023-10-13T08:27:21;22.30;70.80
2913;DHT22;1466;48.778;9.166;2023-10-13T08:30:22;22.40;70.50
2913;DHT22;1466;48.778;9.166;2023-10-13T08:32:55;22.60;70.00
2913;DHT22;1466;48.778;9.166;2023-10-13T08:35:22;22.80;69.60
2913;DHT22;1466;48.778;9.166;2023-10-13T08:37:49;23.30;68.80
2913;DHT22;1466;48.778;9.166;2023-10-13T08:40:17;23.80;68.10
2913;DHT22;1466;48.778;9.166;2023-10-13T08:43:06;24.30;66.80
2913;DHT22;1466;48.778;9.166;2023-10-13T08:45:37;24.70;65.80
2913;DHT22;1466;48.778;9.166;2023-10-13T08:48:06;25.00;65.20
2913;DHT22;1466;48.778;9.166;2023-10-13T08:50:44;25.30;64.30
2913;DHT22;1466;48.778;9.166;2023-10-13T08:53:21;25.50;63.70
2913;DHT22;1466;48.778;9.166;2023-10-13T08:56:09;25.70;63.30
2913;DHT22;1466;48.778;9.166;2023-10-13T08:58:57;25.90;62.50
2913;DHT22;1466;48.778;9.166;2023-10-13T09:01:37;25.90;61.90
2913;DHT22;1466;48.778;9.166;2023-10-13T09:04:12;26.00;61.30
2913;DHT22;1466;48.778;9.166;2023-10-13T09:09:51;26.00;60.40
2913;DHT22;1466;48.778;9.166;2023-10-13T09:15:12;26.10;60.40
2913;DHT22;1466;48.778;9.166;2023-10-13T09:17:41;26.10;60.10
2913;DHT22;1466;48.778;9.166;2023-10-13T09:20:09;26.10;59.70
2913;DHT22;1466;48.778;9.166;2023-10-13T09:22:56;26.10;59.60
2913;DHT22;1466;48.778;9.166;2023-10-13T09:27:59;26.00;59.20
2913;DHT22;1466;48.778;9.166;2023-10-13T09:30:26;26.00;59.20
2913;DHT22;1466;48.778;9.166;2023-10-13T09:33:00;25.90;59.30
2913;DHT22;1466;48.778;9.166;2023-10-13T09:35:27;25.90;59.00
2913;DHT22;1466;48.778;9.166;2023-10-13T09:37:53;25.80;58.80
2913;DHT22;1466;48.778;9.166;2023-10-13T09:40:23;25.70;58.90
2913;DHT22;1466;48.778;9.166;2023-10-13T09:42:55;25.60;59.10
2913;DHT22;1466;48.778;9.166;2023-10-13T09:45:35;25.60;59.20
2913;DHT22;1466;48.778;9.166;2023-10-13T09:48:35;25.50;59.10
2913;DHT22;1466;48.778;9.166;2023-10-13T09:51:04;25.50;59.20
2913;DHT22;1466;48.778;9.166;2023-10-13T09:53:34;25.60;59.20
2913;DHT22;1466;48.778;9.166;2023-10-13T09:59:06;25.60;59.00
2913;DHT22;1466;48.778;9.166;2023-10-13T10:01:41;25.80;58.80
2913;DHT22;1466;48.778;9.166;2023-10-13T10:04:18;25.90;58.50
2913;DHT22;1466;48.778;9.166;2023-10-13T10:06:55;26.00;58.50
2913;DHT22;1466;48.778;9.166;2023-10-13T10:09:30;26.20;58.10
2913;DHT22;1466;48.778;9.166;2023-10-13T10:15:13;26.40;57.60
2913;DHT22;1466;48.778;9.166;2023-10-13T10:17:53;26.60;57.50
2913;DHT22;1466;48.778;9.166;2023-10-13T10:20:28;26.70;57.10
2913;DHT22;1466;48.778;9.166;2023-10-13T10:23:05;27.00;57.00
2913;DHT22;1466;48.778;9.166;2023-10-13T10:25:38;27.00;56.80
2913;DHT22;1466;48.778;9.166;2023-10-13T10:28:07;27.00;56.30
2913;DHT22;1466;48.778;9.166;2023-10-13T10:30:38;26.80;56.10
2913;DHT22;1466;48.778;9.166;2023-10-13T10:33:08;26.80;56.40
2913;DHT22;1466;48.778;9.166;2023-10-13T10:35:39;26.90;56.10
2913;DHT22;1466;48.778;9.166;2023-10-13T10:38:18;27.20;56.00
2913;DHT22;1466;48.778;9.166;2023-10-13T10:41:03;27.30;55.70
2913;DHT22;1466;48.778;9.166;2023-10-13T10:43:39;27.40;55.50
2913;DHT22;1466;48.778;9.166;2023-10-13T10:46:09;27.30;55.50
2913;DHT22;1466;48.778;9.166;2023-10-13T10:48:37;27.10;55.60
2913;DHT22;1466;48.778;9.166;2023-10-13T10:51:11;27.00;55.40
2913;DHT22;1466;48.778;9.166;2023-10-13T10:53:43;27.00;55.70
2913;DHT22;1466;48.778;9.166;2023-10-13T10:56:11;27.20;55.70
2913;DHT22;1466;48.778;9.166;2023-10-13T10:58:47;27.30;55.50
2913;DHT22;1466;48.778;9.166;2023-10-13T11:01:12;27.40;55.10
2913;DHT22;1466;48.778;9.166;2023-10-13T11:03:59;27.40;55.20
2913;DHT22;1466;48.778;9.166;2023-10-13T11:06:36;27.30;55.10
2913;DHT22;1466;48.778;9.166;2023-10-13T11:09:11;27.20;55.30
2913;DHT22;1466;48.778;9.166;2023-10-13T11:11:52;27.20;55.20
2913;DHT22;1466;48.778;9.166;2023-10-13T11:14:23;27.20;55.20
2913;DHT22;1466;48.778;9.166;2023-10-13T11:16:51;27.30;55.10
2913;DHT22;1466;48.778;9.166;2023-10-13T11:19:42;27.40;54.90
2913;DHT22;1466;48.778;9.166;2023-10-13T11:22:24;27.40;54.90
2913;DHT22;1466;48.778;9.166;2023-10-13T11:25:05;27.40;55.00
2913;DHT22;1466;48.778;9.166;2023-10-13T11:27:38;27.50;55.00
2913;DHT22;1466;48.778;9.166;2023-10-13T11:30:19;27.50;55.10
2913;DHT22;1466;48.778;9.166;2023-10-13T11:33:06;27.50;55.10
2913;DHT22;1466;48.778;9.166;2023-10-13T11:35:32;27.50;54.90
2913;DHT22;1466;48.778;9.166;2023-10-13T11:38:17;27.40;54.60
2913;DHT22;1466;48.778;9.166;2023-10-13T11:41:00;27.40;54.60
2913;DHT22;1466;48.778;9.166;2023-10-13T11:46:06;27.40;55.00
2913;DHT22;1466;48.778;9.166;2023-10-13T11:48:34;27.40;54.30
2913;DHT22;1466;48.778;9.166;2023-10-13T11:51:02;27.40;54.40
2913;DHT22;1466;48.778;9.166;2023-10-13T11:53:35;27.40;54.40
2913;DHT22;1466;48.778;9.166;2023-10-13T11:56:01;27.50;54.20
2913;DHT22;1466;48.778;9.166;2023-10-13T11:58:34;27.50;54.20
2913;DHT22;1466;48.778;9.166;2023-10-13T12:01:00;27.50;53.80
2913;DHT22;1466;48.778;9.166;2023-10-13T12:03:45;27.50;53.90
2913;DHT22;1466;48.778;9.166;2023-10-13T12:06:31;27.50;54.10
2913;DHT22;1466;48.778;9.166;2023-10-13T12:09:04;27.50;54.20
2913;DHT22;1466;48.778;9.166;2023-10-13T12:11:59;27.50;54.30
2913;DHT22;1466;48.778;9.166;2023-10-13T12:14:29;27.50;53.80
2913;DHT22;1466;48.778;9.166;2023-10-13T12:17:02;27.60;53.90
2913;DHT22;1466;48.778;9.166;2023-10-13T12:19:36;27.70;53.70
2913;DHT22;1466;48.778;9.166;2023-10-13T12:22:02;27.70;53.70
2913;DHT22;1466;48.778;9.166;2023-10-13T12:24:34;27.70;53.30
2913;DHT22;1466;48.778;9.166;2023-10-13T12:27:00;27.80;53.40
2913;DHT22;1466;48.778;9.166;2023-10-13T12:29:26;27.80;53.40
2913;DHT22;1466;48.778;9.166;2023-10-13T12:31:58;27.80;53.20
2913;DHT22;1466;48.778;9.166;2023-10-13T12:34:46;27.80;53.20
2913;DHT22;1466;48.778;9.166;2023-10-13T12:37:28;27.80;53.10
2913;DHT22;1466;48.778;9.166;2023-10-13T12:40:19;27.80;53.10
2913;DHT22;1466;48.778;9.166;2023-10-13T12:43:04;27.90;53.00
2913;DHT22;1466;48.778;9.166;2023-10-13T12:45:50;28.00;52.90
2913;DHT22;1466;48.778;9.166;2023-10-13T12:48:35;28.00;53.60
2913;DHT22;1466;48.778;9.166;2023-10-13T12:51:20;28.00;53.10
2913;DHT22;1466;48.778;9.166;2023-10-13T12:53:50;28.10;53.30
2913;DHT22;1466;48.778;9.166;2023-10-13T12:56:17;28.10;53.10
2913;DHT22;1466;48.778;9.166;2023-10-13T12:58:43;28.10;53.00
2913;DHT22;1466;48.778;9.166;2023-10-13T13:01:19;28.10;52.80
2913;DHT22;1466;48.778;9.166;2023-10-13T13:03:48;28.30;52.80
2913;DHT22;1466;48.778;9.166;2023-10-13T13:06:22;28.30;53.30
2913;DHT22;1466;48.778;9.166;2023-10-13T13:08:55;28.40;52.40
2913;DHT22;1466;48.778;9.166;2023-10-13T13:11:21;28.40;52.20
2913;DHT22;1466;48.778;9.166;2023-10-13T13:13:47;28.40;51.70
2913;DHT22;1466;48.778;9.166;2023-10-13T13:16:17;28.40;51.80
2913;DHT22;1466;48.778;9.166;2023-10-13T13:18:44;28.50;52.00
2913;DHT22;1466;48.778;9.166;2023-10-13T13:21:10;28.50;52.10
2913;DHT22;1466;48.778;9.166;2023-10-13T13:23:46;28.60;52.10
2913;DHT22;1466;48.778;9.166;2023-10-13T13:26:12;28.60;51.80
2913;DHT22;1466;48.778;9.166;2023-10-13T13:28:45;28.60;50.70
2913;DHT22;1466;48.778;9.166;2023-10-13T13:31:10;28.50;50.20
2913;DHT22;1466;48.778;9.166;2023-10-13T13:33:40;28.50;50.10
2913;DHT22;1466;48.778;9.166;2023-10-13T13:36:09;28.50;50.20
2913;DHT22;1466;48.778;9.166;2023-10-13T13:38:41;28.50;50.30
2913;DHT22;1466;48.778;9.166;2023-10-13T13:41:13;28.60;50.30
2913;DHT22;1466;48.778;9.166;2023-10-13T13:43:49;28.70;50.30
2913;DHT22;1466;48.778;9.166;2023-10-13T13:46:25;28.70;49.50
2913;DHT22;1466;48.778;9.166;2023-10-13T13:48:53;28.60;49.40
2913;DHT22;1466;48.778;9.166;2023-10-13T13:51:29;28.60;49.00
2913;DHT22;1466;48.778;9.166;2023-10-13T13:53:58;28.60;48.80
2913;DHT22;1466;48.778;9.166;2023-10-13T13:56:24;28.60;48.70
2913;DHT22;1466;48.778;9.166;2023-10-13T13:58:51;28.60;48.70
2913;DHT22;1466;48.778;9.166;2023-10-13T14:01:18;28.60;49.00
2913;DHT22;1466;48.778;9.166;2023-10-13T14:03:49;28.60;49.10
2913;DHT22;1466;48.778;9.166;2023-10-13T14:06:22;28.70;49.00
2913;DHT22;1466;48.778;9.166;2023-10-13T14:08:55;28.60;48.90
2913;DHT22;1466;48.778;9.166;2023-10-13T14:11:26;28.60;49.00
2913;DHT22;1466;48.778;9.166;2023-10-13T14:14:07;28.60;49.10
2913;DHT22;1466;48.778;9.166;2023-10-13T14:16:43;28.60;49.40
2913;DHT22;1466;48.778;9.166;2023-10-13T14:19:15;28.60;49.30
2913;DHT22;1466;48.778;9.166;2023-10-13T14:21:55;28.60;49.30
2913;DHT22;1466;48.778;9.166;2023-10-13T14:24:24;28.60;49.50
2913;DHT22;1466;48.778;9.166;2023-10-13T14:26:54;28.70;49.50
2913;DHT22;1466;48.778;9.166;2023-10-13T14:29:20;28.70;49.40
2913;DHT22;1466;48.778;9.166;2023-10-13T14:31:45;28.70;49.40
2913;DHT22;1466;48.778;9.166;2023-10-13T14:34:14;28.70;49.10
2913;DHT22;1466;48.778;9.166;2023-10-13T14:36:40;28.60;49.20
2913;DHT22;1466;48.778;9.166;2023-10-13T14:39:06;28.60;49.20
2913;DHT22;1466;48.778;9.166;2023-10-13T14:41:38;28.50;48.70
2913;DHT22;1466;48.778;9.166;2023-10-13T14:44:04;28.50;48.20
2913;DHT22;1466;48.778;9.166;2023-10-13T14:46:38;28.50;48.40
2913;DHT22;1466;48.778;9.166;2023-10-13T14:49:04;28.40;48.20
2913;DHT22;1466;48.778;9.166;2023-10-13T14:51:30;28.40;48.40
2913;DHT22;1466;48.778;9.166;2023-10-13T14:53:57;28.40;48.40
2913;DHT22;1466;48.778;9.166;2023-10-13T14:56:26;28.40;48.60
2913;DHT22;1466;48.778;9.166;2023-10-13T14:58:53;28.40;48.30
2913;DHT22;1466;48.778;9.166;2023-10-13T15:01:20;28.40;48.00
2913;DHT22;1466;48.778;9.166;2023-10-13T15:03:51;28.30;48.00
2913;DHT22;1466;48.778;9.166;2023-10-13T15:06:22;28.30;47.60
2913;DHT22;1466;48.778;9.166;2023-10-13T15:08:52;28.30;47.10
2913;DHT22;1466;48.778;9.166;2023-10-13T15:11:20;28.30;47.10
2913;DHT22;1466;48.778;9.166;2023-10-13T15:13:46;28.20;47.00
2913;DHT22;1466;48.778;9.166;2023-10-13T15:16:21;28.20;46.80
2913;DHT22;1466;48.778;9.166;2023-10-13T15:18:51;28.20;46.70
2913;DHT22;1466;48.778;9.166;2023-10-13T15:21:25;28.10;46.60
2913;DHT22;1466;48.778;9.166;2023-10-13T15:24:03;28.10;46.30
2913;DHT22;1466;48.778;9.166;2023-10-13T15:26:30;28.00;46.40
2913;DHT22;1466;48.778;9.166;2023-10-13T15:28:57;28.00;46.40
2913;DHT22;1466;48.778;9.166;2023-10-13T15:31:26;27.90;46.50
2913;DHT22;1466;48.778;9.166;2023-10-13T15:33:55;27.80;46.60
2913;DHT22;1466;48.778;9.166;2023-10-13T15:36:22;27.90;46.80
2913;DHT22;1466;48.778;9.166;2023-10-13T15:38:52;27.80;46.70
2913;DHT22;1466;48.778;9.166;2023-10-13T15:41:25;27.80;46.70
2913;DHT22;1466;48.778;9.166;2023-10-13T15:43:51;27.80;46.50
2913;DHT22;1466;48.778;9.166;2023-10-13T15:46:18;27.90;46.30
2913;DHT22;1466;48.778;9.166;2023-10-13T15:48:49;28.00;45.50
2913;DHT22;1466;48.778;9.166;2023-10-13T15:51:15;28.00;45.50
2913;DHT22;1466;48.778;9.166;2023-10-13T15:53:42;27.90;45.70
2913;DHT22;1466;48.778;9.166;2023-10-13T15:56:09;27.80;45.70
2913;DHT22;1466;48.778;9.166;2023-10-13T15:58:43;27.70;45.90
2913;DHT22;1466;48.778;9.166;2023-10-13T16:01:10;27.70;45.90
2913;DHT22;1466;48.778;9.166;2023-10-13T16:03:42;27.60;45.90
2913;DHT22;1466;48.778;9.166;2023-10-13T16:06:15;27.50;46.10
2913;DHT22;1466;48.778;9.166;2023-10-13T16:08:42;27.40;46.30
2913;DHT22;1466;48.778;9.166;2023-10-13T16:11:09;27.40;46.30
2913;DHT22;1466;48.778;9.166;2023-10-13T16:13:45;27.30;46.20
2913;DHT22;1466;48.778;9.166;2023-10-13T16:16:21;27.20;46.60
2913;DHT22;1466;48.778;9.166;2023-10-13T16:18:53;27.10;46.70
2913;DHT22;1466;48.778;9.166;2023-10-13T16:21:19;27.00;46.70
2913;DHT22;1466;48.778;9.166;2023-10-13T16:23:47;27.00;46.90
2913;DHT22;1466;48.778;9.166;2023-10-13T16:26:19;26.90;46.80
2913;DHT22;1466;48.778;9.166;2023-10-13T16:28:50;26.90;46.70
2913;DHT22;1466;48.778;9.166;2023-10-13T16:31:22;26.80;46.70
2913;DHT22;1466;48.778;9.166;2023-10-13T16:33:48;26.80;46.90
2913;DHT22;1466;48.778;9.166;2023-10-13T16:36:14;26.70;47.10
2913;DHT22;1466;48.778;9.166;2023-10-13T16:38:40;26.60;47.60
2913;DHT22;1466;48.778;9.166;2023-10-13T16:41:11;26.50;47.70
2913;DHT22;1466;48.778;9.166;2023-10-13T16:43:38;26.50;47.80
2913;DHT22;1466;48.778;9.166;2023-10-13T16:46:10;26.40;47.90
2913;DHT22;1466;48.778;9.166;2023-10-13T16:48:41;26.30;48.10
2913;DHT22;1466;48.778;9.166;2023-10-13T16:51:07;26.20;48.20
2913;DHT22;1466;48.778;9.166;2023-10-13T16:53:44;26.20;48.60
2913;DHT22;1466;48.778;9.166;2023-10-13T16:56:18;26.10;48.80
2913;DHT22;1466;48.778;9.166;2023-10-13T16:58:44;26.00;49.00
2913;DHT22;1466;48.778;9.166;2023-10-13T17:01:14;26.00;48.90
2913;DHT22;1466;48.778;9.166;2023-10-13T17:03:41;26.00;49.00
2913;DHT22;1466;48.778;9.166;2023-10-13T17:06:11;25.90;49.00
2913;DHT22;1466;48.778;9.166;2023-10-13T17:08:37;25.90;49.10